Time;durP1;ratioP1;P1;durP2;ratioP2;P2;SDS_P1;SDS_P2;PMS_P1;PMS_P2;Temp;Humidity;BMP_temperature;BMP_pressure;BME280_temperature;BME280_humidity;BME280_pressure;Samples;Min_cycle;Max_cycle;Signal;HPM_P1;HPM_P2
2021/10/22 00:00:30;;;;;;;421.85;238.50;;;22.80;75.40;;;;;;5072907;28;20028;-63
2021/10/22 00:02:57;;;;;;;352.60;184.15;;;22.90;75.50;;;;;;5073090;28;20117;-65
2021/10/22 00:05:25;;;;;;;446.67;265.02;;;22.90;75.10;;;;;;5072288;28;20066;-64
2021/10/22 00:07:52;;;;;;;410.65;228.35;;;22.90;75.60;;;;;;5071761;28;20023;-60
2021/10/22 00:10:20;;;;;;;464.52;281.27;;;22.80;75.90;;;;;;5070839;28;20438;-65
2021/10/22 00:12:47;;;;;;;444.60;262.92;;;22.80;76.20;;;;;;5072455;28;20074;-66
2021/10/22 00:15:14;;;;;;;455.50;267.65;;;22.80;75.90;;;;;;5072352;28;20147;-63
2021/10/22 00:17:42;;;;;;;389.83;218.27;;;22.70;76.20;;;;;;5072225;28;20025;-62
2021/10/22 00:20:11;;;;;;;454.25;264.95;;;22.70;76.40;;;;;;5071865;28;20030;-61
2021/10/22 00:22:39;;;;;;;382.80;210.57;;;22.70;76.00;;;;;;5072537;28;20383;-60
2021/10/22 00:25:07;;;;;;;360.80;197.38;;;22.80;75.60;;;;;;5072361;28;20062;-64
2021/10/22 00:27:35;;;;;;;412.42;236.60;;;22.90;75.40;;;;;;5072410;28;20387;-62
2021/10/22 00:30:03;;;;;;;374.65;203.73;;;22.90;75.50;;;;;;5071252;28;20028;-61
2021/10/22 00:32:30;;;;;;;350.08;191.30;;;23.00;74.40;;;;;;5071978;28;20020;-62
2021/10/22 00:34:57;;;;;;;435.85;256.08;;;23.00;74.30;;;;;;5072059;28;20120;-62
2021/10/22 00:37:25;;;;;;;453.38;269.92;;;23.00;74.90;;;;;;5071023;28;20486;-57
2021/10/22 00:39:52;;;;;;;466.35;283.98;;;23.00;75.10;;;;;;5071146;28;20037;-69
2021/10/22 00:42:21;;;;;;;435.20;251.70;;;23.00;75.80;;;;;;5072311;28;20021;-67
2021/10/22 00:44:50;;;;;;;469.58;286.83;;;23.00;74.90;;;;;;5072135;28;20477;-63
2021/10/22 00:47:18;;;;;;;438.70;260.98;;;23.10;75.60;;;;;;5071733;28;20020;-64
2021/10/22 00:49:45;;;;;;;396.92;228.98;;;23.00;75.00;;;;;;5071611;28;20017;-67
2021/10/22 00:52:16;;;;;;;364.02;207.38;;;23.10;74.40;;;;;;5071054;28;20049;-66
2021/10/22 00:54:44;;;;;;;401.23;228.27;;;23.10;74.10;;;;;;5071277;28;20024;-64
2021/10/22 00:57:13;;;;;;;399.15;227.38;;;23.10;74.10;;;;;;5070048;28;20498;-66
2021/10/22 00:59:41;;;;;;;462.10;290.20;;;23.10;74.50;;;;;;5071068;28;20139;-60
2021/10/22 01:02:09;;;;;;;467.40;289.00;;;23.00;75.80;;;;;;5070737;28;20024;-69
2021/10/22 01:04:38;;;;;;;404.83;231.20;;;23.00;76.50;;;;;;5071833;28;20032;-65
2021/10/22 01:07:07;;;;;;;438.30;259.83;;;23.00;76.40;;;;;;5071791;28;20029;-65
2021/10/22 01:09:35;;;;;;;407.35;241.00;;;23.00;76.20;;;;;;5071446;28;20358;-68
2021/10/22 01:12:05;;;;;;;457.50;276.83;;;23.00;76.00;;;;;;5072187;28;20062;-67
2021/10/22 01:14:32;;;;;;;423.80;257.88;;;23.00;76.40;;;;;;5071758;28;20459;-62
2021/10/22 01:17:00;;;;;;;435.20;265.20;;;23.00;76.30;;;;;;5072113;28;20112;-66
2021/10/22 01:19:27;;;;;;;383.70;220.98;;;22.90;76.60;;;;;;5072060;28;20039;-64
2021/10/22 01:21:55;;;;;;;428.42;264.50;;;23.00;76.40;;;;;;5072059;28;20043;-63
2021/10/22 01:24:22;;;;;;;383.02;221.00;;;23.00;76.30;;;;;;5072339;28;20025;-63
2021/10/22 01:26:50;;;;;;;384.63;225.68;;;23.00;76.10;;;;;;5072305;28;20335;-65
2021/10/22 01:29:18;;;;;;;443.63;275.85;;;23.00;76.30;;;;;;5072042;28;20033;-64
2021/10/22 01:31:46;;;;;;;445.65;277.27;;;22.90;76.90;;;;;;5071826;28;20375;-67
2021/10/22 01:34:13;;;;;;;444.70;271.52;;;22.90;77.20;;;;;;5071669;28;20070;-63
2021/10/22 01:36:42;;;;;;;442.30;269.90;;;22.80;77.70;;;;;;5072140;28;20035;-66
2021/10/22 01:39:09;;;;;;;321.55;191.23;;;22.70;77.90;;;;;;5071909;28;20033;-66
2021/10/22 01:41:36;;;;;;;406.67;249.35;;;22.80;76.80;;;;;;5070168;28;20023;-67
2021/10/22 01:44:06;;;;;;;420.75;255.93;;;22.80;77.40;;;;;;5074943;28;20101;-68
2021/10/22 01:46:34;;;;;;;391.88;232.23;;;22.80;77.80;;;;;;5075771;28;20025;-65
2021/10/22 01:49:01;;;;;;;414.25;248.77;;;22.70;77.80;;;;;;5075578;28;20032;-60
2021/10/22 01:51:29;;;;;;;377.50;218.93;;;22.70;77.70;;;;;;5075511;28;20020;-64
2021/10/22 01:53:56;;;;;;;399.23;240.85;;;22.70;77.10;;;;;;5075661;28;20039;-66
2021/10/22 01:56:24;;;;;;;429.35;264.95;;;22.80;77.50;;;;;;5072082;28;20028;-66
2021/10/22 01:58:51;;;;;;;393.98;241.70;;;22.70;78.10;;;;;;5075268;28;20087;-67
2021/10/22 02:01:19;;;;;;;349.67;202.50;;;22.60;78.70;;;;;;5075139;28;20108;-62
2021/10/22 02:03:49;;;;;;;323.70;189.95;;;22.70;77.60;;;;;;5075042;28;20020;-62
2021/10/22 02:06:16;;;;;;;396.75;232.68;;;22.70;77.90;;;;;;5074374;28;20139;-63
2021/10/22 02:08:44;;;;;;;343.20;210.00;;;22.60;78.20;;;;;;5075625;28;20074;-65
2021/10/22 02:11:11;;;;;;;404.20;242.38;;;22.60;78.50;;;;;;5074693;28;20458;-62
2021/10/22 02:13:39;;;;;;;404.98;248.27;;;22.50;79.10;;;;;;5074941;28;20036;-64
2021/10/22 02:16:06;;;;;;;353.73;200.23;;;22.50;79.20;;;;;;5074329;28;20025;-69
2021/10/22 02:18:34;;;;;;;331.83;196.60;;;22.50;79.00;;;;;;5073180;28;20041;-64
2021/10/22 02:21:01;;;;;;;324.92;196.73;;;22.50;79.20;;;;;;5072940;28;20028;-63
2021/10/22 02:23:28;;;;;;;360.67;211.80;;;22.50;79.20;;;;;;5074676;28;20020;-64
2021/10/22 02:25:56;;;;;;;397.58;239.18;;;22.50;79.30;;;;;;5074504;28;20384;-64
2021/10/22 02:28:23;;;;;;;390.63;236.20;;;22.50;79.60;;;;;;5074239;28;20509;-65
2021/10/22 02:30:55;;;;;;;310.80;189.70;;;22.50;79.80;;;;;;5074649;28;20119;-64
2021/10/22 02:33:23;;;;;;;317.02;190.10;;;22.60;79.50;;;;;;5074196;28;20463;-63
2021/10/22 02:35:50;;;;;;;380.15;233.73;;;22.60;79.40;;;;;;5074214;28;20039;-60
2021/10/22 02:38:18;;;;;;;353.15;209.63;;;22.70;79.30;;;;;;5074472;28;20086;-68
2021/10/22 02:40:46;;;;;;;378.63;229.07;;;22.80;78.70;;;;;;5075107;28;20463;-65
2021/10/22 02:43:16;;;;;;;369.63;224.57;;;22.80;78.40;;;;;;5074605;28;20032;-62
2021/10/22 02:45:43;;;;;;;299.05;177.77;;;22.90;78.50;;;;;;5072734;28;20029;-60
2021/10/22 02:48:11;;;;;;;372.15;220.90;;;23.00;77.80;;;;;;5073564;28;20037;-65
2021/10/22 02:50:38;;;;;;;305.13;183.63;;;23.00;77.80;;;;;;5056822;28;20029;-61
2021/10/22 02:53:06;;;;;;;280.92;170.75;;;23.00;77.10;;;;;;5073754;28;20507;-63
2021/10/22 02:55:33;;;;;;;272.50;161.80;;;23.10;76.80;;;;;;5074267;28;20051;-64
2021/10/22 02:58:00;;;;;;;368.95;217.93;;;23.20;76.20;;;;;;5073992;28;20037;-58
2021/10/22 03:00:28;;;;;;;349.95;213.35;;;23.10;77.00;;;;;;5073993;28;20052;-62
2021/10/22 03:02:55;;;;;;;344.73;208.50;;;23.10;77.10;;;;;;5074070;28;20020;-61
2021/10/22 03:05:23;;;;;;;316.88;186.82;;;23.00;77.40;;;;;;5073777;28;20032;-60
2021/10/22 03:07:51;;;;;;;314.38;193.57;;;23.00;77.00;;;;;;5073292;28;20386;-65
2021/10/22 03:10:19;;;;;;;349.95;211.85;;;23.10;76.90;;;;;;5074224;28;20052;-64
2021/10/22 03:12:46;;;;;;;258.13;156.68;;;23.00;77.80;;;;;;5074321;28;20027;-59
2021/10/22 03:15:15;;;;;;;280.52;170.40;;;23.00;77.30;;;;;;5073140;28;20028;-58
2021/10/22 03:17:42;;;;;;;332.00;202.63;;;23.00;77.20;;;;;;5073198;28;20024;-64
2021/10/22 03:20:11;;;;;;;326.73;201.43;;;23.00;77.20;;;;;;5073663;28;20379;-56
2021/10/22 03:22:39;;;;;;;290.05;178.80;;;23.00;77.70;;;;;;5073553;28;20539;-59
2021/10/22 03:25:08;;;;;;;308.27;186.43;;;22.90;78.00;;;;;;5073529;28;20415;-65
2021/10/22 03:27:35;;;;;;;263.15;161.98;;;22.90;78.30;;;;;;5073491;28;20048;-63
2021/10/22 03:30:05;;;;;;;227.15;139.32;;;23.00;78.10;;;;;;5073598;28;20032;-61
2021/10/22 03:32:33;;;;;;;319.63;193.20;;;23.10;76.50;;;;;;5073179;28;20498;-57
2021/10/22 03:35:01;;;;;;;301.48;184.25;;;23.00;77.50;;;;;;5073011;28;20340;-62
2021/10/22 03:37:29;;;;;;;308.08;191.23;;;23.00;77.80;;;;;;5073547;28;20494;-59
2021/10/22 03:39:57;;;;;;;295.90;187.00;;;23.00;77.90;;;;;;5073235;28;19913;-59
2021/10/22 03:42:24;;;;;;;312.15;190.77;;;23.00;78.00;;;;;;5073038;28;20117;-59
2021/10/22 03:44:52;;;;;;;267.70;168.68;;;22.90;78.10;;;;;;5072223;28;20474;-60
2021/10/22 03:47:19;;;;;;;273.02;169.65;;;22.90;78.30;;;;;;5071898;28;20025;-59
2021/10/22 03:49:47;;;;;;;300.67;182.80;;;23.00;77.90;;;;;;5072758;28;20075;-60
2021/10/22 03:52:14;;;;;;;301.88;182.75;;;23.00;78.10;;;;;;5071006;28;20044;-62
2021/10/22 03:54:41;;;;;;;206.25;131.18;;;22.90;78.20;;;;;;5072277;28;20127;-60
2021/10/22 03:57:09;;;;;;;223.07;139.20;;;23.00;77.70;;;;;;5072774;28;20036;-60
2021/10/22 03:59:36;;;;;;;245.60;156.75;;;23.00;78.30;;;;;;5072352;28;20032;-59
2021/10/22 04:02:04;;;;;;;261.10;158.10;;;22.90;78.30;;;;;;5072360;28;20493;-58
2021/10/22 04:04:35;;;;;;;223.75;138.43;;;23.00;78.50;;;;;;5071718;28;20048;-57
2021/10/22 04:07:03;;;;;;;244.60;152.65;;;23.00;78.40;;;;;;5072426;28;20530;-57
2021/10/22 04:09:34;;;;;;;224.10;136.82;;;23.00;78.10;;;;;;5071836;28;20043;-57
2021/10/22 04:12:02;;;;;;;247.43;157.57;;;23.00;77.90;;;;;;5072088;28;20025;-59
2021/10/22 04:14:29;;;;;;;270.05;168.80;;;23.10;78.50;;;;;;5071209;28;20021;-62
2021/10/22 04:16:59;;;;;;;204.40;122.75;;;23.00;78.00;;;;;;5072736;28;20395;-59
2021/10/22 04:19:27;;;;;;;190.20;118.22;;;23.10;77.90;;;;;;5072761;28;20114;-60
2021/10/22 04:21:54;;;;;;;254.35;161.63;;;23.10;77.90;;;;;;5072222;28;20021;-60
2021/10/22 04:24:23;;;;;;;238.95;149.88;;;23.10;78.10;;;;;;5072631;28;20435;-62
2021/10/22 04:26:50;;;;;;;202.60;126.93;;;23.00;78.20;;;;;;5072470;28;20016;-61
2021/10/22 04:29:18;;;;;;;194.02;119.13;;;23.20;77.80;;;;;;5072192;28;20031;-61
2021/10/22 04:31:45;;;;;;;196.73;127.25;;;23.20;77.40;;;;;;5072369;28;20067;-61
2021/10/22 04:34:13;;;;;;;197.45;121.80;;;23.20;77.50;;;;;;5072242;28;20029;-62
2021/10/22 04:36:42;;;;;;;166.13;97.30;;;23.20;77.30;;;;;;5072402;28;20025;-62
2021/10/22 04:41:55;;;;;;;219.23;136.25;;;23.10;77.60;;;;;;5071363;28;20062;-62
2021/10/22 04:44:25;;;;;;;234.18;152.63;;;23.10;78.20;;;;;;5071966;28;20036;-66
2021/10/22 04:46:54;;;;;;;212.18;138.50;;;23.00;78.30;;;;;;5071534;28;20074;-66
2021/10/22 04:49:21;;;;;;;171.68;106.60;;;23.00;78.40;;;;;;5071708;28;20024;-65
2021/10/22 04:51:48;;;;;;;223.50;143.30;;;23.10;77.80;;;;;;5071757;28;20048;-61
2021/10/22 04:54:16;;;;;;;225.88;142.30;;;23.10;78.00;;;;;;5071646;28;20077;-62
2021/10/22 04:56:43;;;;;;;244.20;153.15;;;23.10;78.20;;;;;;5071858;28;20395;-63
2021/10/22 04:59:10;;;;;;;216.05;139.50;;;23.00;78.50;;;;;;5071780;28;20047;-64
2021/10/22 05:01:37;;;;;;;199.77;129.52;;;23.00;78.50;;;;;;5071652;28;20032;-62
2021/10/22 05:04:05;;;;;;;188.60;120.32;;;23.10;78.00;;;;;;5071445;28;20082;-63
2021/10/22 05:06:32;;;;;;;184.80;114.53;;;23.20;77.90;;;;;;5071511;28;20025;-59
2021/10/22 05:09:00;;;;;;;222.15;143.63;;;23.20;77.90;;;;;;5071356;28;20025;-60
2021/10/22 05:11:27;;;;;;;153.25;96.13;;;23.20;77.80;;;;;;5071719;28;20218;-62
2021/10/22 05:13:54;;;;;;;172.18;109.47;;;23.20;77.30;;;;;;5070945;28;20074;-63
2021/10/22 05:16:23;;;;;;;181.73;114.28;;;23.30;76.90;;;;;;5071694;28;20029;-67
2021/10/22 05:18:50;;;;;;;211.30;135.57;;;23.30;77.00;;;;;;5075365;28;20367;-63
2021/10/22 05:21:17;;;;;;;178.70;112.88;;;23.30;77.50;;;;;;5075082;28;20052;-60
2021/10/22 05:23:45;;;;;;;188.65;115.10;;;23.20;77.60;;;;;;5074405;28;20076;-62
2021/10/22 05:26:12;;;;;;;156.52;100.25;;;23.20;78.00;;;;;;5075252;28;20171;-62
2021/10/22 05:28:40;;;;;;;199.88;132.05;;;23.30;77.10;;;;;;5074913;28;20056;-64
2021/10/22 05:31:07;;;;;;;175.85;108.10;;;23.20;77.60;;;;;;5075268;28;20059;-66
2021/10/22 05:33:35;;;;;;;186.48;119.45;;;23.20;77.70;;;;;;5075463;28;20035;-66
2021/10/22 05:36:02;;;;;;;190.60;120.82;;;23.10;77.80;;;;;;5075184;28;20108;-66
2021/10/22 05:38:30;;;;;;;199.80;126.43;;;23.20;77.90;;;;;;5074998;28;20021;-64
2021/10/22 05:40:57;;;;;;;203.43;129.30;;;23.10;78.20;;;;;;5075486;28;20028;-65
2021/10/22 05:43:25;;;;;;;191.80;123.72;;;23.00;78.40;;;;;;5075935;28;20024;-64
2021/10/22 05:45:52;;;;;;;142.77;90.50;;;23.00;78.60;;;;;;5074882;28;20446;-64
2021/10/22 05:48:20;;;;;;;160.55;97.93;;;23.10;77.60;;;;;;5075416;28;20081;-64
2021/10/22 05:50:47;;;;;;;174.20;112.22;;;23.20;77.60;;;;;;5075436;28;20029;-66
2021/10/22 05:53:14;;;;;;;188.70;118.28;;;23.20;77.80;;;;;;5074589;28;20059;-63
2021/10/22 05:55:42;;;;;;;136.57;86.57;;;23.10;78.00;;;;;;5075557;28;20074;-64
2021/10/22 05:58:09;;;;;;;149.52;96.15;;;23.20;77.80;;;;;;5075141;28;20047;-66
2021/10/22 06:00:37;;;;;;;158.05;103.25;;;23.20;77.50;;;;;;5075233;28;20143;-65
2021/10/22 06:03:04;;;;;;;163.95;106.65;;;23.10;77.50;;;;;;5075214;28;20028;-67
2021/10/22 06:05:32;;;;;;;178.02;112.20;;;23.10;78.10;;;;;;5075174;28;20032;-65
2021/10/22 06:08:00;;;;;;;183.85;118.97;;;23.00;78.40;;;;;;5075007;28;20027;-66
2021/10/22 06:10:27;;;;;;;142.88;93.10;;;23.00;79.00;;;;;;5075506;28;20029;-59
2021/10/22 06:12:55;;;;;;;135.65;86.07;;;23.00;78.40;;;;;;5074223;28;20027;-67
2021/10/22 06:15:23;;;;;;;163.35;104.70;;;23.00;78.00;;;;;;5074221;28;20078;-63
2021/10/22 06:17:53;;;;;;;154.90;100.07;;;22.90;78.20;;;;;;5074426;28;20029;-58
2021/10/22 06:20:33;;;;;;;178.70;111.95;;;22.90;78.70;;;;;;5074315;28;20501;-66
2021/10/22 06:25:41;;;;;;;171.15;109.88;;;22.80;79.30;;;;;;5074643;28;20016;-66
2021/10/22 06:28:13;;;;;;;153.60;99.47;;;22.70;79.70;;;;;;5073102;28;20098;-68
2021/10/22 06:30:41;;;;;;;152.98;99.07;;;22.70;79.80;;;;;;5072038;28;20462;-62
2021/10/22 06:33:08;;;;;;;155.98;97.57;;;22.70;79.70;;;;;;5073933;28;20383;-68
2021/10/22 06:35:37;;;;;;;153.52;99.35;;;22.70;79.90;;;;;;5073044;28;20020;-62
2021/10/22 06:38:04;;;;;;;146.07;93.20;;;22.70;80.00;;;;;;5073886;28;20028;-62
2021/10/22 06:40:31;;;;;;;150.02;97.10;;;22.70;80.00;;;;;;5073897;28;20055;-70
2021/10/22 06:42:59;;;;;;;161.55;104.85;;;22.70;80.10;;;;;;5074008;28;20029;-66
2021/10/22 06:45:26;;;;;;;148.43;99.05;;;22.60;80.50;;;;;;5072518;28;20082;-68
2021/10/22 06:47:54;;;;;;;112.60;73.00;;;22.60;80.50;;;;;;5073474;28;20031;-69
2021/10/22 06:50:21;;;;;;;142.30;92.07;;;22.60;80.00;;;;;;5073941;28;20028;-61
2021/10/22 06:52:49;;;;;;;130.30;86.55;;;22.60;80.30;;;;;;5073706;28;20049;-67
2021/10/22 06:55:18;;;;;;;148.80;96.93;;;22.60;80.40;;;;;;5074426;28;20025;-66
2021/10/22 06:57:45;;;;;;;142.95;95.25;;;22.60;80.80;;;;;;5074218;28;20390;-65
2021/10/22 07:00:13;;;;;;;130.93;85.50;;;22.50;81.00;;;;;;5072811;28;20033;-67
2021/10/22 07:02:51;;;;;;;142.82;92.90;;;22.50;80.70;;;;;;5074325;28;20020;-60
2021/10/22 07:07:53;;;;;;;145.57;95.72;;;22.50;81.00;;;;;;5072577;28;20024;-63
2021/10/22 07:10:20;;;;;;;144.23;94.15;;;22.40;81.40;;;;;;5072968;28;20024;-67
2021/10/22 07:12:48;;;;;;;138.82;90.15;;;22.40;81.60;;;;;;5074167;28;20029;-65
2021/10/22 07:15:16;;;;;;;127.90;83.03;;;22.30;81.50;;;;;;5074082;28;20501;-62
2021/10/22 07:17:45;;;;;;;140.45;92.13;;;22.40;81.50;;;;;;5073853;28;20028;-61
2021/10/22 07:20:14;;;;;;;122.55;81.40;;;22.30;81.60;;;;;;5072645;28;20126;-62
2021/10/22 07:22:51;;;;;;;118.25;78.88;;;22.30;81.70;;;;;;5074050;28;20115;-63
2021/10/22 07:25:20;;;;;;;108.45;70.22;;;22.30;81.70;;;;;;5072876;28;20025;-67
2021/10/22 07:27:48;;;;;;;131.52;86.97;;;22.30;81.70;;;;;;5073966;28;20020;-65
2021/10/22 07:30:16;;;;;;;122.30;81.00;;;22.30;81.90;;;;;;5073403;28;20032;-67
2021/10/22 07:32:46;;;;;;;126.25;83.05;;;22.20;82.10;;;;;;5073556;28;20039;-61
2021/10/22 07:35:15;;;;;;;115.43;75.03;;;22.20;82.10;;;;;;5073720;28;20028;-66
2021/10/22 07:37:44;;;;;;;102.05;68.78;;;22.10;82.30;;;;;;5073496;28;20048;-64
2021/10/22 07:40:12;;;;;;;104.72;68.10;;;22.10;82.30;;;;;;5072983;28;20032;-65
2021/10/22 07:42:39;;;;;;;96.13;63.28;;;22.10;82.40;;;;;;5072989;28;20049;-63
2021/10/22 07:45:09;;;;;;;109.25;76.25;;;22.10;82.40;;;;;;5073137;28;20165;-67
2021/10/22 07:47:37;;;;;;;95.18;61.30;;;22.00;82.50;;;;;;5073692;28;20052;-66
2021/10/22 07:50:07;;;;;;;90.03;62.42;;;22.00;82.50;;;;;;5073455;28;20044;-66
2021/10/22 07:52:35;;;;;;;112.68;76.22;;;22.00;82.90;;;;;;5073541;28;20106;-67
2021/10/22 07:55:04;;;;;;;114.88;75.43;;;21.90;83.00;;;;;;5071868;28;20023;-63
2021/10/22 07:57:33;;;;;;;100.93;67.20;;;21.90;83.20;;;;;;5053046;28;20091;-66
2021/10/22 08:00:01;;;;;;;107.10;70.60;;;21.90;83.40;;;;;;5053241;28;20089;-68
2021/10/22 08:02:29;;;;;;;113.60;73.25;;;21.80;84.10;;;;;;5053259;28;20460;-68
2021/10/22 08:04:56;;;;;;;102.28;70.20;;;21.80;83.60;;;;;;5053320;28;20039;-68
2021/10/22 08:07:33;;;;;;;102.78;66.20;;;21.80;83.70;;;;;;5053269;28;20357;-66
2021/10/22 08:10:00;;;;;;;95.20;63.28;;;21.80;83.90;;;;;;5052522;28;20025;-69
2021/10/22 08:12:28;;;;;;;105.90;71.15;;;21.80;84.00;;;;;;5051915;28;20025;-65
2021/10/22 08:14:56;;;;;;;99.15;68.90;;;21.70;84.10;;;;;;5052654;28;20464;-65
2021/10/22 08:17:25;;;;;;;104.50;73.57;;;21.70;84.30;;;;;;5052220;28;20029;-67
2021/10/22 08:20:18;;;;;;;107.00;72.25;;;21.60;84.30;;;;;;5052426;28;20503;-66
2021/10/22 08:22:40;;;;;;;98.97;65.97;;;21.60;84.40;;;;;;5052103;28;20442;-64
2021/10/22 08:25:09;;;;;;;98.97;66.97;;;21.60;84.40;;;;;;5052797;28;20488;-65
2021/10/22 08:27:48;;;;;;;100.18;67.70;;;21.60;84.60;;;;;;5052263;28;20032;-63
2021/10/22 08:30:22;;;;;;;100.03;67.93;;;21.60;84.70;;;;;;5052501;28;20116;-66
2021/10/22 08:32:51;;;;;;;103.28;69.88;;;21.50;84.80;;;;;;5052661;28;20109;-65
2021/10/22 08:35:20;;;;;;;103.50;71.60;;;21.50;85.00;;;;;;5053131;28;20025;-69
2021/10/22 08:37:48;;;;;;;107.20;72.50;;;21.50;85.00;;;;;;5052730;28;20025;-69
2021/10/22 08:40:16;;;;;;;102.18;69.28;;;21.50;85.10;;;;;;5052011;28;20033;-69
2021/10/22 08:42:45;;;;;;;98.70;66.18;;;21.40;85.10;;;;;;5052265;28;20040;-62
2021/10/22 08:45:13;;;;;;;98.65;65.43;;;21.50;85.30;;;;;;5052260;28;20053;-67
2021/10/22 08:47:41;;;;;;;105.88;68.13;;;21.50;85.40;;;;;;5052076;28;20468;-64
2021/10/22 08:50:13;;;;;;;99.20;68.30;;;21.40;85.40;;;;;;5051941;28;20083;-66
2021/10/22 08:52:41;;;;;;;96.40;63.80;;;21.40;85.50;;;;;;5049872;28;20507;-62
2021/10/22 08:55:13;;;;;;;93.55;64.60;;;21.40;85.50;;;;;;5052140;28;20032;-59
2021/10/22 08:57:44;;;;;;;98.20;67.13;;;21.40;85.40;;;;;;5052378;28;20046;-63
2021/10/22 09:00:14;;;;;;;96.55;64.32;;;21.40;85.40;;;;;;5051560;28;20052;-64
2021/10/22 09:02:44;;;;;;;88.13;58.97;;;21.40;85.40;;;;;;5051951;28;20059;-63
2021/10/22 09:05:20;;;;;;;60.63;38.70;;;21.40;85.50;;;;;;5051698;28;20058;-62
2021/10/22 09:07:57;;;;;;;81.72;53.63;;;21.30;87.00;;;;;;5051749;28;20495;-68
2021/10/22 09:10:36;;;;;;;82.95;54.13;;;21.30;86.90;;;;;;5051384;28;20124;-66
2021/10/22 09:13:08;;;;;;;75.13;51.80;;;21.30;87.20;;;;;;5051262;28;20025;-67
2021/10/22 09:15:42;;;;;;;72.95;50.25;;;21.30;87.00;;;;;;5051584;28;20104;-65
2021/10/22 09:18:28;;;;;;;79.35;54.55;;;21.30;86.70;;;;;;5051496;28;20448;-67
2021/10/22 09:21:02;;;;;;;81.22;54.72;;;21.30;86.60;;;;;;5052017;28;20025;-65
2021/10/22 09:23:34;;;;;;;77.88;54.97;;;21.20;86.50;;;;;;5051742;28;20059;-65
2021/10/22 09:26:24;;;;;;;72.80;52.30;;;21.30;86.50;;;;;;5051239;28;20037;-65
2021/10/22 09:28:52;;;;;;;82.97;54.25;;;21.20;86.40;;;;;;5051418;28;20480;-69
2021/10/22 09:31:21;;;;;;;72.80;50.35;;;21.30;86.30;;;;;;5051400;28;20033;-66
2021/10/22 09:33:56;;;;;;;77.60;54.10;;;21.20;86.10;;;;;;5050381;28;20036;-63
2021/10/22 09:36:39;;;;;;;71.57;48.83;;;21.30;86.10;;;;;;5051454;28;20104;-65
2021/10/22 09:39:10;;;;;;;73.15;50.42;;;21.20;86.10;;;;;;5051687;28;20395;-61
2021/10/22 09:41:39;;;;;;;79.38;52.28;;;21.20;86.30;;;;;;5051574;28;20020;-62
2021/10/22 09:44:21;;;;;;;75.22;52.08;;;21.20;86.40;;;;;;5051133;28;20033;-58
2021/10/22 09:47:07;;;;;;;71.50;48.33;;;21.20;86.40;;;;;;5051123;28;20029;-62
2021/10/22 09:49:46;;;;;;;76.45;53.40;;;21.20;86.60;;;;;;5051243;28;20025;-61
2021/10/22 09:52:20;;;;;;;72.63;48.90;;;21.20;86.80;;;;;;5051360;28;20052;-59
2021/10/22 09:54:48;;;;;;;71.15;49.75;;;21.10;86.50;;;;;;5051075;28;20033;-63
2021/10/22 09:57:16;;;;;;;70.90;47.72;;;21.20;86.80;;;;;;5051414;28;20021;-59
2021/10/22 09:59:45;;;;;;;72.53;49.45;;;21.20;86.80;;;;;;5051043;28;20392;-63
2021/10/22 10:02:12;;;;;;;74.45;50.47;;;21.10;86.80;;;;;;5051271;28;20021;-59
2021/10/22 10:04:40;;;;;;;67.75;45.83;;;21.10;87.00;;;;;;5054155;28;20528;-62
2021/10/22 10:07:08;;;;;;;63.97;44.40;;;21.10;87.00;;;;;;5055250;28;20020;-64
2021/10/22 10:09:40;;;;;;;57.65;41.22;;;21.10;87.00;;;;;;5054960;28;20027;-66
2021/10/22 10:12:08;;;;;;;65.00;44.10;;;21.10;87.00;;;;;;5054700;28;20430;-65
2021/10/22 10:14:36;;;;;;;67.28;45.20;;;21.10;87.10;;;;;;5054521;28;20128;-62
2021/10/22 10:17:03;;;;;;;63.63;44.72;;;21.10;87.10;;;;;;5054986;28;20083;-68
2021/10/22 10:19:36;;;;;;;66.60;45.67;;;21.10;87.20;;;;;;5054357;28;20109;-67
2021/10/22 10:22:07;;;;;;;67.35;44.63;;;21.10;87.30;;;;;;5053558;28;20040;-66
2021/10/22 10:24:59;;;;;;;64.95;45.65;;;21.00;87.30;;;;;;5054571;28;20076;-65
2021/10/22 10:27:26;;;;;;;62.17;44.17;;;21.10;87.30;;;;;;5047096;28;20036;-62
2021/10/22 10:29:58;;;;;;;75.40;48.88;;;21.00;87.30;;;;;;5054622;28;20055;-67
2021/10/22 10:32:28;;;;;;;66.75;47.65;;;21.00;87.30;;;;;;5054985;28;20048;-68
2021/10/22 10:35:00;;;;;;;72.97;49.50;;;21.00;88.00;;;;;;5054476;28;20029;-67
2021/10/22 10:37:32;;;;;;;68.20;48.80;;;21.00;87.30;;;;;;5054468;28;20490;-62
2021/10/22 10:40:22;;;;;;;70.65;47.47;;;21.00;87.40;;;;;;5054395;28;20075;-70
2021/10/22 10:42:55;;;;;;;65.53;42.97;;;21.00;87.30;;;;;;5054524;28;20021;-68
2021/10/22 10:45:26;;;;;;;68.38;44.47;;;21.00;87.30;;;;;;5054181;28;20033;-69
2021/10/22 10:48:07;;;;;;;63.33;43.50;;;21.00;87.40;;;;;;5053446;28;20479;-65
2021/10/22 10:50:36;;;;;;;64.60;45.67;;;21.00;87.40;;;;;;5054158;28;20060;-67
2021/10/22 10:53:03;;;;;;;69.70;46.92;;;21.00;87.40;;;;;;5053903;28;20515;-67
2021/10/22 10:55:43;;;;;;;64.50;44.08;;;21.00;87.50;;;;;;5052983;28;20171;-63
2021/10/22 10:58:11;;;;;;;63.72;43.63;;;21.00;87.40;;;;;;5074127;28;20044;-65
2021/10/22 11:00:49;;;;;;;64.22;42.42;;;21.00;87.40;;;;;;5072621;28;20145;-63
2021/10/22 11:03:28;;;;;;;64.78;45.40;;;21.00;87.30;;;;;;5074413;28;20028;-66
2021/10/22 11:05:55;;;;;;;61.55;45.03;;;21.00;87.50;;;;;;5074012;28;20475;-66
2021/10/22 11:08:32;;;;;;;68.78;46.05;;;21.00;87.40;;;;;;5073907;28;20028;-63
2021/10/22 11:11:15;;;;;;;62.53;44.85;;;21.00;87.50;;;;;;5073487;28;20021;-67
2021/10/22 11:13:50;;;;;;;63.10;42.40;;;21.00;87.50;;;;;;5071456;28;20029;-63
2021/10/22 11:16:29;;;;;;;61.53;44.05;;;21.00;87.50;;;;;;5074436;28;20025;-70
2021/10/22 11:19:00;;;;;;;64.13;44.13;;;20.90;87.40;;;;;;5073875;28;20138;-64
2021/10/22 11:21:30;;;;;;;63.05;43.75;;;20.90;87.50;;;;;;5073939;28;20387;-64
2021/10/22 11:24:00;;;;;;;58.25;40.58;;;20.90;87.50;;;;;;5073683;28;20047;-65
2021/10/22 11:26:29;;;;;;;58.13;42.35;;;20.90;87.50;;;;;;5073491;28;20021;-64
2021/10/22 11:28:59;;;;;;;57.30;39.53;;;20.90;87.50;;;;;;5072005;28;20413;-62
2021/10/22 11:31:48;;;;;;;60.22;42.13;;;20.90;87.40;;;;;;5073395;28;20420;-66
2021/10/22 11:34:28;;;;;;;61.75;41.22;;;20.90;87.50;;;;;;5073699;28;20028;-65
2021/10/22 11:37:09;;;;;;;60.13;43.25;;;20.90;87.60;;;;;;5073116;28;20495;-67
2021/10/22 11:39:49;;;;;;;54.15;38.63;;;20.90;87.50;;;;;;5073323;28;20343;-68
2021/10/22 11:42:18;;;;;;;53.83;38.75;;;20.90;87.60;;;;;;5072966;28;20032;-63
2021/10/22 11:44:52;;;;;;;54.92;38.88;;;20.90;87.70;;;;;;5073234;28;20479;-63
2021/10/22 11:47:30;;;;;;;57.47;39.30;;;20.90;87.60;;;;;;5073461;28;20379;-66
2021/10/22 11:50:11;;;;;;;56.60;38.03;;;20.90;87.50;;;;;;5073178;28;20123;-64
2021/10/22 11:52:38;;;;;;;58.50;39.17;;;20.90;87.70;;;;;;5072734;28;20468;-66
2021/10/22 11:55:06;;;;;;;56.60;39.10;;;20.80;87.50;;;;;;5072926;28;20082;-65
2021/10/22 11:57:35;;;;;;;53.42;38.60;;;20.90;87.70;;;;;;5073159;28;20017;-67
2021/10/22 12:00:06;;;;;;;56.05;37.83;;;20.80;87.50;;;;;;5071545;28;20056;-63
2021/10/22 12:02:34;;;;;;;51.95;38.63;;;20.80;87.50;;;;;;5072392;28;20461;-67
2021/10/22 12:05:09;;;;;;;60.58;39.58;;;20.80;87.60;;;;;;5072671;28;20093;-63
2021/10/22 12:07:39;;;;;;;50.95;37.42;;;20.80;87.60;;;;;;5071626;28;20047;-65
2021/10/22 12:10:09;;;;;;;53.53;37.63;;;20.80;87.50;;;;;;5072950;28;20021;-62
2021/10/22 12:12:39;;;;;;;49.97;35.83;;;20.80;87.70;;;;;;5072533;28;20506;-61
2021/10/22 12:15:08;;;;;;;51.40;35.83;;;20.80;88.20;;;;;;5066211;28;20056;-62
2021/10/22 12:17:37;;;;;;;54.63;38.25;;;20.80;87.60;;;;;;5068400;28;20028;-60
2021/10/22 12:20:07;;;;;;;52.85;36.33;;;20.80;87.50;;;;;;5067102;28;20131;-58
2021/10/22 12:22:44;;;;;;;50.75;36.53;;;20.80;87.50;;;;;;5067000;28;20017;-62
2021/10/22 12:25:15;;;;;;;51.83;34.97;;;20.80;87.40;;;;;;5066627;28;20066;-62
2021/10/22 12:28:12;;;;;;;47.50;34.33;;;20.80;87.70;;;;;;5068553;28;20523;-61
2021/10/22 12:30:40;;;;;;;50.97;36.33;;;20.80;87.70;;;;;;5065115;28;20060;-62
2021/10/22 12:33:11;;;;;;;52.05;36.35;;;20.80;87.40;;;;;;5066647;28;20032;-60
2021/10/22 12:35:54;;;;;;;50.43;36.33;;;20.80;87.40;;;;;;5066489;28;20028;-58